This demonstration page uses our WeatherBlox Daily Observations layout. Learn more.

41.55636, -103.73856

Hourly Observations for October 14, 2016

Temp ( °F °C ) Dew Point ( °F °C ) Humidity (%) Winds ( mph kmh ) Pressure ( in mb ) Visibility ( mi km ) Precip ( " mm )
12:53 am 00:53 Clear 43 6.1 37 2.8 80 80 ESE 5 7 29.87 1012 10 16.0934 0 0
1:53 am 01:53 Clear 44 6.7 37 2.8 76 76 E 7 11 29.83 1010 10 16.0934 0 0
2:53 am 02:53 Clear 45 7.2 34 1.1 66 66 Calm 29.81 1010 10 16.0934 0 0
3:53 am 03:53 Clear 45 7.2 33 0.6 63 63 NE 6 9 29.8 1009 10 16.0934 0 0
4:53 am 04:53 Clear 45 7.2 32 0 61 61 E 7 11 29.79 1009 10 16.0934 0 0
5:53 am 05:53 Clear 45 7.2 31 -0.6 58 58 E 5 7 29.8 1009 10 16.0934 0 0
6:53 am 06:53 Clear 46 7.8 30 -1.1 54 54 Calm 29.82 1010 10 16.0934 0 0
7:53 am 07:53 Sunny 49 9.4 32 0 52 52 E 5 7 29.82 1010 10 16.0934 0 0
8:53 am 08:53 Sunny 63 17.2 32 0 31 31 Calm 29.78 1009 10 16.0934 0 0
9:53 am 09:53 Sunny 69 20.6 32 0 25 25 Calm 29.77 1008 10 16.0934 0 0
10:53 am 10:53 Sunny 71 21.7 38 3.3 30 30 SE 3 6 29.75 1007 10 16.0934 0 0
11:53 am 11:53 Sunny 75 23.9 37 2.8 25 25 Calm 29.72 1007 10 16.0934 0 0
12:53 pm 12:53 Sunny 75 23.9 31 -0.6 20 20 VRB 3 6 29.7 1006 10 16.0934 0 0
1:53 pm 13:53 Sunny 79 26.1 30 -1.1 17 17 ESE 3 6 29.66 1005 10 16.0934 0 0
2:53 pm 14:53 Sunny 79 26.1 31 -0.6 17 17 SSE 9 15 29.63 1003 10 16.0934 0 0
3:53 pm 15:53 Sunny 79 26.1 33 0.6 19 19 SSW 12 19 29.6 1003 10 16.0934 0 0
4:53 pm 16:53 Sunny 79 26.1 29 -1.7 16 16 SSW 14 22 29.6 1002 10 16.0934 0 0
5:53 pm 17:53 Sunny 74 23.3 30 -1.1 20 20 SSW 7 11 29.61 1003 10 16.0934 0 0
6:53 pm 18:53 Clear 72 22.2 29 -1.7 20 20 W 9 15 29.64 1004 10 16.0934 0 0
7:53 pm 19:53 Clear 59 15 31 -0.6 35 35 NE 5 7 29.68 1005 10 16.0934 0 0
8:53 pm 20:53 Clear 63 17.2 30 -1.1 29 29 NW 6 9 29.64 1004 10 16.0934 0 0
9:53 pm 21:53 Clear 57 13.9 30 -1.1 36 36 undefined N/A 29.65 1004 10 16.0934 0 0
10:53 pm 22:53 Clear 59 15 29 -1.7 32 32 VRB 5 7 29.64 1004 10 16.0934 0 0
11:53 pm 23:53 Clear 56 13.3 30 -1.1 37 37 Calm 29.65 1004 10 16.0934 0 0

Powered by AerisWeather